To NAV CANADA Home Page Login to a new session Search on AWWS site Feedback and Comments Disclaimer Vers la page française équivalente Tips FAQ What's new on the site To the Forecasts and Observations / NOTAM section To "File a Flight Plan" website Publications and other links Update of the User's profile FIC Telephone Numbers My Weather Data Folder Route Weather Data Regional Weather Data Local Weather Data To the Forecasts and Observations / NOTAM section
Request Generated 05/27/2015 at 15:40:19 UTC . Weather information available at that time is displayed.

METAR/TAF

ISLAND LAKE/MB    

METAR CYIV 271500Z 01006KT 330V050 15SM FEW250 07/M04 A3011 RMK CI1
SLP209=
METAR CYIV 271400Z 02005KT 350V050 15SM FEW250 05/M03 A3010 RMK CI1
SLP204=
METAR CYIV 271300Z 01007KT 15SM FEW015 FEW250 03/M02 A3008 RMK SF1CI1
SF TR SLP197=

TAF CYIV 271238Z 2713/2801 01006KT P6SM SKC
BECMG 2715/2717 VRB03KT
RMK NXT FCST BY 271900Z=
Your time UTC time
Weather data provided by Environment Canada and NAV CANADA